Terminal Aerodrome Forecast
Issued by NWS

Home | Current Version | Previous Version | Text Only | Print | Product List | Glossary On
Versions: 1 2 3 4 5 6 7 8 9 10 11 12 13 14 15 16 17 18 19
000
FTUS46 KMTR 211124
TAFMRY
TAF
KMRY 211124Z 2112/2212 09005KT P6SM SCT150
     FM211600 10003KT P6SM SCT120 BKN150
     FM211800 VRB03KT P6SM FEW020 BKN120
     FM212000 30005KT P6SM FEW020 BKN100
     FM220300 12004KT P6SM SCT018 BKN100=

USA.gov is the U.S. government's official web portal to all federal, state and local government web resources and services.